sensor_id;sensor_type;location;lat;lon;timestamp;pressure;altitude;pressure_sealevel;temperature;humidity
16690;BME280;8458;52.220;9.884;2023-09-19T00:01:29;99825.66;;;18.07;90.96
16690;BME280;8458;52.220;9.884;2023-09-19T00:03:58;99824.03;;;18.06;90.86
16690;BME280;8458;52.220;9.884;2023-09-19T00:06:28;99817.97;;;17.96;91.63
16690;BME280;8458;52.220;9.884;2023-09-19T00:08:56;99811.72;;;17.90;91.48
16690;BME280;8458;52.220;9.884;2023-09-19T00:11:24;99827.41;;;17.91;91.30
16690;BME280;8458;52.220;9.884;2023-09-19T00:13:52;99821.63;;;17.79;91.53
16690;BME280;8458;52.220;9.884;2023-09-19T00:16:18;99823.44;;;17.74;91.96
16690;BME280;8458;52.220;9.884;2023-09-19T00:18:45;99827.41;;;17.73;92.94
16690;BME280;8458;52.220;9.884;2023-09-19T00:21:13;99836.19;;;17.63;93.81
16690;BME280;8458;52.220;9.884;2023-09-19T00:23:40;99837.84;;;17.55;94.27
16690;BME280;8458;52.220;9.884;2023-09-19T00:26:07;99845.75;;;17.53;94.92
16690;BME280;8458;52.220;9.884;2023-09-19T00:28:33;99845.59;;;17.50;95.50
16690;BME280;8458;52.220;9.884;2023-09-19T00:31:00;99851.53;;;17.39;96.86
16690;BME280;8458;52.220;9.884;2023-09-19T00:33:27;99846.78;;;17.40;97.28
16690;BME280;8458;52.220;9.884;2023-09-19T00:35:56;99853.19;;;17.32;97.80
16690;BME280;8458;52.220;9.884;2023-09-19T00:38:24;99840.66;;;17.20;99.14
16690;BME280;8458;52.220;9.884;2023-09-19T00:40:52;99837.72;;;17.17;99.80
16690;BME280;8458;52.220;9.884;2023-09-19T00:43:20;99839.34;;;17.18;100.00
16690;BME280;8458;52.220;9.884;2023-09-19T00:45:49;99843.97;;;17.14;99.59
16690;BME280;8458;52.220;9.884;2023-09-19T00:48:16;99844.63;;;17.11;99.77
16690;BME280;8458;52.220;9.884;2023-09-19T00:50:45;99838.69;;;17.21;99.27
16690;BME280;8458;52.220;9.884;2023-09-19T00:53:14;99843.63;;;17.24;98.86
16690;BME280;8458;52.220;9.884;2023-09-19T00:55:45;99846.75;;;17.31;98.32
16690;BME280;8458;52.220;9.884;2023-09-19T00:58:11;99853.03;;;17.28;98.75
16690;BME280;8458;52.220;9.884;2023-09-19T01:00:38;99856.81;;;17.32;98.21
16690;BME280;8458;52.220;9.884;2023-09-19T01:03:10;99845.63;;;17.32;97.83
16690;BME280;8458;52.220;9.884;2023-09-19T01:05:38;99849.41;;;17.28;98.00
16690;BME280;8458;52.220;9.884;2023-09-19T01:08:05;99856.34;;;17.22;97.88
16690;BME280;8458;52.220;9.884;2023-09-19T01:10:32;99854.81;;;17.24;97.05
16690;BME280;8458;52.220;9.884;2023-09-19T01:13:04;99858.47;;;17.16;96.88
16690;BME280;8458;52.220;9.884;2023-09-19T01:15:40;99856.81;;;17.15;97.29
16690;BME280;8458;52.220;9.884;2023-09-19T01:18:16;99872.47;;;17.07;97.72
16690;BME280;8458;52.220;9.884;2023-09-19T01:20:53;99872.47;;;17.07;96.92
16690;BME280;8458;52.220;9.884;2023-09-19T01:23:29;99871.63;;;17.07;96.97
16690;BME280;8458;52.220;9.884;2023-09-19T01:26:06;99872.16;;;17.09;97.10
16690;BME280;8458;52.220;9.884;2023-09-19T01:28:43;99885.47;;;17.03;96.89
16690;BME280;8458;52.220;9.884;2023-09-19T01:31:14;99876.75;;;17.05;96.13
16690;BME280;8458;52.220;9.884;2023-09-19T01:33:57;99879.88;;;17.03;96.26
16690;BME280;8458;52.220;9.884;2023-09-19T01:36:29;99883.66;;;16.98;96.23
16690;BME280;8458;52.220;9.884;2023-09-19T01:38:57;99897.66;;;16.98;94.79
16690;BME280;8458;52.220;9.884;2023-09-19T01:41:36;99893.22;;;16.97;95.12
16690;BME280;8458;52.220;9.884;2023-09-19T01:44:09;99897.66;;;16.98;94.57
16690;BME280;8458;52.220;9.884;2023-09-19T01:46:41;99904.41;;;16.97;94.42
16690;BME280;8458;52.220;9.884;2023-09-19T01:49:22;99908.38;;;16.96;94.15
16690;BME280;8458;52.220;9.884;2023-09-19T01:51:58;99907.41;;;17.01;94.33
16690;BME280;8458;52.220;9.884;2023-09-19T01:54:32;99900.31;;;17.03;93.48
16690;BME280;8458;52.220;9.884;2023-09-19T01:57:07;99910.00;;;16.97;93.47
16690;BME280;8458;52.220;9.884;2023-09-19T01:59:47;99900.81;;;17.06;92.78
16690;BME280;8458;52.220;9.884;2023-09-19T02:02:17;99912.16;;;17.00;93.52
16690;BME280;8458;52.220;9.884;2023-09-19T02:04:47;99906.56;;;17.00;93.20
16690;BME280;8458;52.220;9.884;2023-09-19T02:07:15;99902.63;;;17.01;93.89
16690;BME280;8458;52.220;9.884;2023-09-19T02:09:42;99903.63;;;17.06;93.58
16690;BME280;8458;52.220;9.884;2023-09-19T02:12:09;99909.22;;;17.06;91.93
16690;BME280;8458;52.220;9.884;2023-09-19T02:14:35;99914.31;;;17.12;91.28
16690;BME280;8458;52.220;9.884;2023-09-19T02:17:03;99918.44;;;17.15;91.26
16690;BME280;8458;52.220;9.884;2023-09-19T02:19:33;99925.69;;;17.16;91.55
16690;BME280;8458;52.220;9.884;2023-09-19T02:22:00;99926.50;;;17.16;91.62
16690;BME280;8458;52.220;9.884;2023-09-19T02:24:28;99935.72;;;17.08;91.83
16690;BME280;8458;52.220;9.884;2023-09-19T02:26:55;99933.25;;;17.07;92.06
16690;BME280;8458;52.220;9.884;2023-09-19T02:29:22;99936.41;;;17.14;92.43
16690;BME280;8458;52.220;9.884;2023-09-19T02:31:48;99926.34;;;17.13;91.74
16690;BME280;8458;52.220;9.884;2023-09-19T02:34:15;99939.19;;;17.14;92.20
16690;BME280;8458;52.220;9.884;2023-09-19T02:36:44;99931.13;;;17.12;92.05
16690;BME280;8458;52.220;9.884;2023-09-19T02:39:11;99935.22;;;17.15;92.12
16690;BME280;8458;52.220;9.884;2023-09-19T02:41:38;99931.28;;;17.16;90.48
16690;BME280;8458;52.220;9.884;2023-09-19T02:44:07;99931.63;;;17.14;91.01
16690;BME280;8458;52.220;9.884;2023-09-19T02:46:33;99927.16;;;17.13;90.59
16690;BME280;8458;52.220;9.884;2023-09-19T02:49:01;99933.91;;;17.03;91.05
16690;BME280;8458;52.220;9.884;2023-09-19T02:51:30;99930.25;;;16.94;91.49
16690;BME280;8458;52.220;9.884;2023-09-19T02:53:58;99915.59;;;16.89;91.30
16690;BME280;8458;52.220;9.884;2023-09-19T02:56:25;99919.38;;;16.93;91.67
16690;BME280;8458;52.220;9.884;2023-09-19T02:58:52;99920.56;;;16.92;91.44
16690;BME280;8458;52.220;9.884;2023-09-19T03:01:20;99921.03;;;16.94;91.48
16690;BME280;8458;52.220;9.884;2023-09-19T03:03:47;99928.28;;;16.86;92.20
16690;BME280;8458;52.220;9.884;2023-09-19T03:06:14;99923.50;;;16.87;92.25
16690;BME280;8458;52.220;9.884;2023-09-19T03:08:41;99932.56;;;16.92;92.56
16690;BME280;8458;52.220;9.884;2023-09-19T03:11:10;99933.72;;;16.91;93.15
16690;BME280;8458;52.220;9.884;2023-09-19T03:13:38;99931.91;;;16.95;92.85
16690;BME280;8458;52.220;9.884;2023-09-19T03:16:05;99935.03;;;16.94;93.27
16690;BME280;8458;52.220;9.884;2023-09-19T03:18:31;99939.81;;;16.93;93.79
16690;BME280;8458;52.220;9.884;2023-09-19T03:20:58;99936.06;;;16.98;93.48
16690;BME280;8458;52.220;9.884;2023-09-19T03:23:25;99945.59;;;16.97;92.35
16690;BME280;8458;52.220;9.884;2023-09-19T03:25:52;99955.13;;;16.96;90.90
16690;BME280;8458;52.220;9.884;2023-09-19T03:28:21;99947.72;;;16.91;90.40
16690;BME280;8458;52.220;9.884;2023-09-19T03:30:57;99948.00;;;16.81;89.85
16690;BME280;8458;52.220;9.884;2023-09-19T03:33:24;99957.53;;;16.80;89.24
16690;BME280;8458;52.220;9.884;2023-09-19T03:35:52;99954.09;;;16.83;88.88
16690;BME280;8458;52.220;9.884;2023-09-19T03:38:19;99955.22;;;16.82;89.13
16690;BME280;8458;52.220;9.884;2023-09-19T03:40:46;99957.94;;;16.87;88.40
16690;BME280;8458;52.220;9.884;2023-09-19T03:43:14;99970.53;;;16.76;88.67
16690;BME280;8458;52.220;9.884;2023-09-19T03:45:41;99959.66;;;16.74;89.05
16690;BME280;8458;52.220;9.884;2023-09-19T03:48:08;99965.88;;;16.71;89.19
16690;BME280;8458;52.220;9.884;2023-09-19T03:50:35;99979.53;;;16.64;89.15
16690;BME280;8458;52.220;9.884;2023-09-19T03:53:01;99979.56;;;16.73;88.71
16690;BME280;8458;52.220;9.884;2023-09-19T03:55:28;99977.94;;;16.72;88.88
16690;BME280;8458;52.220;9.884;2023-09-19T03:57:55;99983.66;;;16.66;88.39
16690;BME280;8458;52.220;9.884;2023-09-19T04:00:22;99993.72;;;16.67;88.00
16690;BME280;8458;52.220;9.884;2023-09-19T04:02:53;99995.81;;;16.62;88.17
16690;BME280;8458;52.220;9.884;2023-09-19T04:05:21;100003.41;;;16.61;88.43
16690;BME280;8458;52.220;9.884;2023-09-19T04:07:47;100004.69;;;16.55;88.17
16690;BME280;8458;52.220;9.884;2023-09-19T04:10:15;100016.38;;;16.57;88.16
16690;BME280;8458;52.220;9.884;2023-09-19T04:12:50;100013.72;;;16.52;88.68
16690;BME280;8458;52.220;9.884;2023-09-19T04:15:17;100009.16;;;16.56;88.68
16690;BME280;8458;52.220;9.884;2023-09-19T04:17:44;100016.38;;;16.57;88.96
16690;BME280;8458;52.220;9.884;2023-09-19T04:20:12;100012.94;;;16.60;88.01
16690;BME280;8458;52.220;9.884;2023-09-19T04:22:39;100011.16;;;16.64;87.41
16690;BME280;8458;52.220;9.884;2023-09-19T04:25:05;100019.97;;;16.49;87.52
16690;BME280;8458;52.220;9.884;2023-09-19T04:27:33;100014.09;;;16.59;87.15
16690;BME280;8458;52.220;9.884;2023-09-19T04:29:59;100015.38;;;16.53;86.96
16690;BME280;8458;52.220;9.884;2023-09-19T04:32:34;100019.78;;;16.45;87.74
16690;BME280;8458;52.220;9.884;2023-09-19T04:35:01;100009.72;;;16.44;87.36
16690;BME280;8458;52.220;9.884;2023-09-19T04:37:32;100018.19;;;16.53;87.32
16690;BME280;8458;52.220;9.884;2023-09-19T04:39:59;100021.09;;;16.48;87.12
16690;BME280;8458;52.220;9.884;2023-09-19T04:42:25;100021.88;;;16.40;87.24
16690;BME280;8458;52.220;9.884;2023-09-19T04:44:52;100017.31;;;16.44;86.99
16690;BME280;8458;52.220;9.884;2023-09-19T04:47:19;100028.50;;;16.44;86.94
16690;BME280;8458;52.220;9.884;2023-09-19T04:49:46;100027.47;;;16.40;87.43
16690;BME280;8458;52.220;9.884;2023-09-19T04:52:12;100021.25;;;16.43;86.73
16690;BME280;8458;52.220;9.884;2023-09-19T04:54:42;100034.28;;;16.47;86.76
16690;BME280;8458;52.220;9.884;2023-09-19T04:57:08;100039.88;;;16.47;86.02
16690;BME280;8458;52.220;9.884;2023-09-19T04:59:35;100038.44;;;16.59;85.61
16690;BME280;8458;52.220;9.884;2023-09-19T05:02:01;100047.03;;;16.62;85.39
16690;BME280;8458;52.220;9.884;2023-09-19T05:04:28;100045.88;;;16.63;84.53
16690;BME280;8458;52.220;9.884;2023-09-19T05:06:54;100055.28;;;16.67;84.52
16690;BME280;8458;52.220;9.884;2023-09-19T05:09:21;100055.94;;;16.64;84.12
16690;BME280;8458;52.220;9.884;2023-09-19T05:11:50;100053.63;;;16.66;83.79
16690;BME280;8458;52.220;9.884;2023-09-19T05:14:16;100062.34;;;16.65;83.61
16690;BME280;8458;52.220;9.884;2023-09-19T05:16:43;100056.56;;;16.61;83.30
16690;BME280;8458;52.220;9.884;2023-09-19T05:19:09;100069.03;;;16.55;83.53
16690;BME280;8458;52.220;9.884;2023-09-19T05:21:36;100072.97;;;16.54;83.02
16690;BME280;8458;52.220;9.884;2023-09-19T05:24:04;100064.03;;;16.43;82.50
16690;BME280;8458;52.220;9.884;2023-09-19T05:26:31;100064.97;;;16.39;83.17
16690;BME280;8458;52.220;9.884;2023-09-19T05:28:59;100075.53;;;16.42;82.79
16690;BME280;8458;52.220;9.884;2023-09-19T05:31:26;100085.59;;;16.43;83.17
16690;BME280;8458;52.220;9.884;2023-09-19T05:33:53;100084.88;;;16.37;83.49
16690;BME280;8458;52.220;9.884;2023-09-19T05:36:19;100094.78;;;16.43;83.48
16690;BME280;8458;52.220;9.884;2023-09-19T05:38:46;100095.44;;;16.40;83.18
16690;BME280;8458;52.220;9.884;2023-09-19T05:41:15;100091.97;;;16.35;83.16
16690;BME280;8458;52.220;9.884;2023-09-19T05:43:43;100087.00;;;16.31;82.81
16690;BME280;8458;52.220;9.884;2023-09-19T05:46:10;100097.03;;;16.33;81.69
16690;BME280;8458;52.220;9.884;2023-09-19T05:48:37;100098.28;;;16.26;80.82
16690;BME280;8458;52.220;9.884;2023-09-19T05:51:04;100101.09;;;16.26;80.67
16690;BME280;8458;52.220;9.884;2023-09-19T05:53:31;100099.50;;;16.11;80.45
16690;BME280;8458;52.220;9.884;2023-09-19T05:55:58;100101.59;;;16.06;80.72
16690;BME280;8458;52.220;9.884;2023-09-19T05:58:26;100110.09;;;16.01;81.40
16690;BME280;8458;52.220;9.884;2023-09-19T06:00:52;100120.25;;;15.97;81.69
16690;BME280;8458;52.220;9.884;2023-09-19T06:03:22;100122.75;;;15.98;82.04
16690;BME280;8458;52.220;9.884;2023-09-19T06:05:48;100131.25;;;15.93;82.23
16690;BME280;8458;52.220;9.884;2023-09-19T06:08:16;100125.34;;;15.94;81.63
16690;BME280;8458;52.220;9.884;2023-09-19T06:10:43;100136.84;;;15.93;82.17
16690;BME280;8458;52.220;9.884;2023-09-19T06:13:11;100137.66;;;15.93;82.80
16690;BME280;8458;52.220;9.884;2023-09-19T06:15:37;100131.31;;;16.02;83.35
16690;BME280;8458;52.220;9.884;2023-09-19T06:18:10;100143.03;;;16.04;82.08
16690;BME280;8458;52.220;9.884;2023-09-19T06:20:41;100148.63;;;16.04;82.53
16690;BME280;8458;52.220;9.884;2023-09-19T06:23:09;100151.09;;;16.05;82.07
16690;BME280;8458;52.220;9.884;2023-09-19T06:25:36;100141.19;;;15.99;82.21
16690;BME280;8458;52.220;9.884;2023-09-19T06:28:03;100152.75;;;16.06;82.21
16690;BME280;8458;52.220;9.884;2023-09-19T06:30:31;100144.78;;;16.00;82.11
16690;BME280;8458;52.220;9.884;2023-09-19T06:32:58;100141.19;;;15.99;82.52
16690;BME280;8458;52.220;9.884;2023-09-19T06:35:26;100154.53;;;16.02;82.84
16690;BME280;8458;52.220;9.884;2023-09-19T06:37:54;100148.00;;;16.07;81.74
16690;BME280;8458;52.220;9.884;2023-09-19T06:40:22;100140.94;;;16.09;82.28
16690;BME280;8458;52.220;9.884;2023-09-19T06:42:51;100146.41;;;16.15;80.51
16690;BME280;8458;52.220;9.884;2023-09-19T06:45:18;100142.16;;;16.17;81.31
16690;BME280;8458;52.220;9.884;2023-09-19T06:47:45;100142.53;;;16.24;81.23
16690;BME280;8458;52.220;9.884;2023-09-19T06:50:14;100132.00;;;16.21;80.18
16690;BME280;8458;52.220;9.884;2023-09-19T06:52:44;100131.16;;;16.21;80.47
16690;BME280;8458;52.220;9.884;2023-09-19T06:55:12;100145.22;;;16.29;80.54
16690;BME280;8458;52.220;9.884;2023-09-19T06:57:41;100138.31;;;16.27;80.06
16690;BME280;8458;52.220;9.884;2023-09-19T07:00:09;100135.69;;;16.30;79.22
16690;BME280;8458;52.220;9.884;2023-09-19T07:02:40;100137.34;;;16.31;79.64
16690;BME280;8458;52.220;9.884;2023-09-19T07:05:07;100146.44;;;16.37;79.47
16690;BME280;8458;52.220;9.884;2023-09-19T07:07:34;100146.63;;;16.41;79.45
16690;BME280;8458;52.220;9.884;2023-09-19T07:10:01;100158.19;;;16.48;79.97
16690;BME280;8458;52.220;9.884;2023-09-19T07:12:29;100167.75;;;16.47;79.12
16690;BME280;8458;52.220;9.884;2023-09-19T07:14:55;100172.19;;;16.48;78.76
16690;BME280;8458;52.220;9.884;2023-09-19T07:17:22;100164.31;;;16.50;78.71
16690;BME280;8458;52.220;9.884;2023-09-19T07:19:49;100172.72;;;16.50;77.40
16690;BME280;8458;52.220;9.884;2023-09-19T07:22:16;100173.63;;;16.59;76.93
16690;BME280;8458;52.220;9.884;2023-09-19T07:24:42;100163.09;;;16.65;75.70
16690;BME280;8458;52.220;9.884;2023-09-19T07:27:09;100175.13;;;16.65;75.46
16690;BME280;8458;52.220;9.884;2023-09-19T07:29:36;100159.88;;;16.72;75.18
16690;BME280;8458;52.220;9.884;2023-09-19T07:32:03;100182.13;;;16.77;74.07
16690;BME280;8458;52.220;9.884;2023-09-19T07:34:31;100176.66;;;16.72;73.54
16690;BME280;8458;52.220;9.884;2023-09-19T07:36:57;100174.75;;;16.81;72.79
16690;BME280;8458;52.220;9.884;2023-09-19T07:39:24;100167.81;;;16.78;73.22
16690;BME280;8458;52.220;9.884;2023-09-19T07:41:50;100177.16;;;16.74;72.75
16690;BME280;8458;52.220;9.884;2023-09-19T07:44:16;100187.53;;;16.73;72.90
16690;BME280;8458;52.220;9.884;2023-09-19T07:46:46;100183.22;;;16.67;72.47
16690;BME280;8458;52.220;9.884;2023-09-19T07:49:16;100191.66;;;16.76;70.94
16690;BME280;8458;52.220;9.884;2023-09-19T07:51:43;100197.78;;;16.78;73.11
16690;BME280;8458;52.220;9.884;2023-09-19T07:54:11;100199.94;;;16.81;72.68
16690;BME280;8458;52.220;9.884;2023-09-19T07:56:39;100195.00;;;16.78;72.02
16690;BME280;8458;52.220;9.884;2023-09-19T07:59:06;100202.81;;;16.90;71.69
16690;BME280;8458;52.220;9.884;2023-09-19T08:01:33;100204.03;;;16.75;72.00
16690;BME280;8458;52.220;9.884;2023-09-19T08:04:02;100208.66;;;16.79;70.70
16690;BME280;8458;52.220;9.884;2023-09-19T08:06:28;100199.25;;;16.75;70.93
16690;BME280;8458;52.220;9.884;2023-09-19T08:08:55;100200.19;;;16.71;71.70
16690;BME280;8458;52.220;9.884;2023-09-19T08:11:22;100209.31;;;16.76;72.55
16690;BME280;8458;52.220;9.884;2023-09-19T08:13:50;100201.84;;;16.72;71.49
16690;BME280;8458;52.220;9.884;2023-09-19T08:16:16;100203.50;;;16.73;71.27
16690;BME280;8458;52.220;9.884;2023-09-19T08:18:47;100201.84;;;16.72;70.91
16690;BME280;8458;52.220;9.884;2023-09-19T08:21:14;100202.50;;;16.69;71.54
16690;BME280;8458;52.220;9.884;2023-09-19T08:23:41;100200.19;;;16.71;71.49
16690;BME280;8458;52.220;9.884;2023-09-19T08:26:08;100202.22;;;16.79;72.89
16690;BME280;8458;52.220;9.884;2023-09-19T08:28:35;100199.31;;;16.84;71.46
16690;BME280;8458;52.220;9.884;2023-09-19T08:31:02;100200.09;;;16.98;70.96
16690;BME280;8458;52.220;9.884;2023-09-19T08:33:31;100205.94;;;17.11;71.21
16690;BME280;8458;52.220;9.884;2023-09-19T08:35:58;100209.94;;;17.18;70.81
16690;BME280;8458;52.220;9.884;2023-09-19T08:38:26;100225.44;;;17.25;70.73
16690;BME280;8458;52.220;9.884;2023-09-19T08:40:57;100217.06;;;17.33;69.92
16690;BME280;8458;52.220;9.884;2023-09-19T08:43:23;100213.63;;;17.36;68.55
16690;BME280;8458;52.220;9.884;2023-09-19T08:45:50;100215.63;;;17.36;68.69
16690;BME280;8458;52.220;9.884;2023-09-19T08:48:22;100207.91;;;17.42;68.79
16690;BME280;8458;52.220;9.884;2023-09-19T08:50:52;100214.50;;;17.46;70.04
16690;BME280;8458;52.220;9.884;2023-09-19T08:53:31;100214.69;;;17.49;68.43
16690;BME280;8458;52.220;9.884;2023-09-19T08:56:00;100215.50;;;17.50;68.38
16690;BME280;8458;52.220;9.884;2023-09-19T08:58:34;100211.25;;;17.61;68.80
16690;BME280;8458;52.220;9.884;2023-09-19T09:01:00;100216.06;;;17.61;69.41
16690;BME280;8458;52.220;9.884;2023-09-19T09:03:32;100215.09;;;17.65;69.46
16690;BME280;8458;52.220;9.884;2023-09-19T09:05:59;100233.41;;;17.71;68.23
16690;BME280;8458;52.220;9.884;2023-09-19T09:08:30;100224.50;;;17.69;67.48
16690;BME280;8458;52.220;9.884;2023-09-19T09:10:57;100224.97;;;17.63;67.82
16690;BME280;8458;52.220;9.884;2023-09-19T09:13:24;100214.41;;;17.60;67.48
16690;BME280;8458;52.220;9.884;2023-09-19T09:15:53;100219.13;;;17.50;67.88
16690;BME280;8458;52.220;9.884;2023-09-19T09:18:19;100229.56;;;17.59;68.53
16690;BME280;8458;52.220;9.884;2023-09-19T09:20:47;100221.66;;;17.61;68.19
16690;BME280;8458;52.220;9.884;2023-09-19T09:23:14;100218.06;;;17.69;69.34
16690;BME280;8458;52.220;9.884;2023-09-19T09:25:50;100213.47;;;17.73;67.43
16690;BME280;8458;52.220;9.884;2023-09-19T09:28:21;100216.97;;;17.79;67.30
16690;BME280;8458;52.220;9.884;2023-09-19T09:30:47;100210.34;;;17.74;67.29
16690;BME280;8458;52.220;9.884;2023-09-19T09:33:14;100214.28;;;17.73;67.03
16690;BME280;8458;52.220;9.884;2023-09-19T09:35:49;100213.13;;;17.74;66.39
16690;BME280;8458;52.220;9.884;2023-09-19T09:38:17;100210.34;;;17.74;67.52
16690;BME280;8458;52.220;9.884;2023-09-19T09:40:50;100215.66;;;17.85;66.09
16690;BME280;8458;52.220;9.884;2023-09-19T09:43:31;100223.13;;;17.89;64.83
16690;BME280;8458;52.220;9.884;2023-09-19T09:46:10;100229.06;;;17.97;66.38
16690;BME280;8458;52.220;9.884;2023-09-19T09:49:01;100223.44;;;17.97;67.56
16690;BME280;8458;52.220;9.884;2023-09-19T09:51:41;100215.72;;;18.02;66.00
16690;BME280;8458;52.220;9.884;2023-09-19T09:54:10;100224.63;;;18.04;66.39
16690;BME280;8458;52.220;9.884;2023-09-19T09:56:52;100238.53;;;18.09;66.42
16690;BME280;8458;52.220;9.884;2023-09-19T09:59:19;100229.78;;;18.11;65.44
16690;BME280;8458;52.220;9.884;2023-09-19T10:01:49;100221.69;;;18.09;65.97
16690;BME280;8458;52.220;9.884;2023-09-19T10:04:27;100240.31;;;18.05;66.73
16690;BME280;8458;52.220;9.884;2023-09-19T10:06:55;100237.38;;;18.19;68.04
16690;BME280;8458;52.220;9.884;2023-09-19T10:09:22;100234.91;;;18.35;66.66
16690;BME280;8458;52.220;9.884;2023-09-19T10:12:06;100232.47;;;18.42;66.48
16690;BME280;8458;52.220;9.884;2023-09-19T10:14:37;100224.69;;;18.57;66.63
16690;BME280;8458;52.220;9.884;2023-09-19T10:17:05;100232.94;;;18.62;65.91
16690;BME280;8458;52.220;9.884;2023-09-19T10:19:36;100240.56;;;18.70;66.41
16690;BME280;8458;52.220;9.884;2023-09-19T10:22:04;100231.16;;;18.75;65.86
16690;BME280;8458;52.220;9.884;2023-09-19T10:24:34;100235.09;;;18.65;65.78
16690;BME280;8458;52.220;9.884;2023-09-19T10:27:02;100223.88;;;18.65;66.77
16690;BME280;8458;52.220;9.884;2023-09-19T10:29:32;100225.34;;;18.71;67.04
16690;BME280;8458;52.220;9.884;2023-09-19T10:32:03;100235.09;;;18.83;66.82
16690;BME280;8458;52.220;9.884;2023-09-19T10:34:34;100249.50;;;18.90;66.44
16690;BME280;8458;52.220;9.884;2023-09-19T10:37:02;100222.25;;;18.90;64.84
16690;BME280;8458;52.220;9.884;2023-09-19T10:39:31;100226.34;;;18.93;65.24
16690;BME280;8458;52.220;9.884;2023-09-19T10:42:02;100236.59;;;18.97;65.32
16690;BME280;8458;52.220;9.884;2023-09-19T10:44:32;100223.88;;;19.09;64.25
16690;BME280;8458;52.220;9.884;2023-09-19T10:46:59;100218.53;;;19.16;63.62
16690;BME280;8458;52.220;9.884;2023-09-19T10:49:26;100225.00;;;19.16;64.44
16690;BME280;8458;52.220;9.884;2023-09-19T10:51:54;100233.25;;;19.22;64.02
16690;BME280;8458;52.220;9.884;2023-09-19T10:54:26;100229.75;;;19.33;64.01
16690;BME280;8458;52.220;9.884;2023-09-19T10:56:54;100222.47;;;19.41;62.90
16690;BME280;8458;52.220;9.884;2023-09-19T10:59:24;100229.78;;;19.25;62.95
16690;BME280;8458;52.220;9.884;2023-09-19T11:01:53;100232.59;;;19.25;63.18
16690;BME280;8458;52.220;9.884;2023-09-19T11:04:23;100228.63;;;19.26;63.73
16690;BME280;8458;52.220;9.884;2023-09-19T11:07:04;100241.16;;;19.28;62.67
16690;BME280;8458;52.220;9.884;2023-09-19T11:09:43;100237.53;;;19.28;62.74
16690;BME280;8458;52.220;9.884;2023-09-19T11:12:12;100233.06;;;19.35;61.78
16690;BME280;8458;52.220;9.884;2023-09-19T11:14:40;100233.88;;;19.36;60.57
16690;BME280;8458;52.220;9.884;2023-09-19T11:17:42;100223.63;;;19.40;59.78
16690;BME280;8458;52.220;9.884;2023-09-19T11:20:29;100227.22;;;19.49;61.42
16690;BME280;8458;52.220;9.884;2023-09-19T11:23:21;100222.72;;;19.57;62.15
16690;BME280;8458;52.220;9.884;2023-09-19T11:25:51;100223.94;;;19.47;60.64
16690;BME280;8458;52.220;9.884;2023-09-19T11:28:29;100217.66;;;19.42;61.27
16690;BME280;8458;52.220;9.884;2023-09-19T11:30:56;100212.69;;;19.47;59.99
16690;BME280;8458;52.220;9.884;2023-09-19T11:33:26;100219.28;;;19.51;60.69
16690;BME280;8458;52.220;9.884;2023-09-19T11:35:59;100208.34;;;19.59;61.17
16690;BME280;8458;52.220;9.884;2023-09-19T11:38:58;100207.97;;;19.69;62.58
16690;BME280;8458;52.220;9.884;2023-09-19T11:41:37;100216.19;;;19.74;61.67
16690;BME280;8458;52.220;9.884;2023-09-19T11:44:32;100224.16;;;19.72;60.43
16690;BME280;8458;52.220;9.884;2023-09-19T11:47:06;100207.59;;;19.79;60.76
16690;BME280;8458;52.220;9.884;2023-09-19T11:49:33;100209.06;;;19.85;60.74
16690;BME280;8458;52.220;9.884;2023-09-19T11:52:03;100207.06;;;19.86;59.76
16690;BME280;8458;52.220;9.884;2023-09-19T11:54:31;100217.03;;;19.75;58.93
16690;BME280;8458;52.220;9.884;2023-09-19T11:57:00;100210.59;;;19.74;58.54
16690;BME280;8458;52.220;9.884;2023-09-19T11:59:28;100203.63;;;19.80;58.62
16690;BME280;8458;52.220;9.884;2023-09-19T12:01:56;100218.97;;;19.83;58.65
16690;BME280;8458;52.220;9.884;2023-09-19T12:04:38;100213.06;;;19.76;59.03
16690;BME280;8458;52.220;9.884;2023-09-19T12:07:07;100215.88;;;19.76;59.57
16690;BME280;8458;52.220;9.884;2023-09-19T12:09:38;100205.44;;;19.85;58.85
16690;BME280;8458;52.220;9.884;2023-09-19T12:12:06;100197.09;;;19.97;59.67
16690;BME280;8458;52.220;9.884;2023-09-19T12:14:32;100207.09;;;20.07;59.66
16690;BME280;8458;52.220;9.884;2023-09-19T12:17:00;100206.22;;;20.15;56.69
16690;BME280;8458;52.220;9.884;2023-09-19T12:19:28;100215.69;;;20.11;55.99
16690;BME280;8458;52.220;9.884;2023-09-19T12:21:58;100202.16;;;20.04;58.32
16690;BME280;8458;52.220;9.884;2023-09-19T12:24:26;100205.19;;;19.99;56.97
16690;BME280;8458;52.220;9.884;2023-09-19T12:27:00;100212.31;;;19.96;58.63
16690;BME280;8458;52.220;9.884;2023-09-19T12:29:29;100211.50;;;19.96;57.61
16690;BME280;8458;52.220;9.884;2023-09-19T12:31:57;100215.94;;;19.97;58.45
16690;BME280;8458;52.220;9.884;2023-09-19T12:34:26;100209.88;;;19.86;57.61
16690;BME280;8458;52.220;9.884;2023-09-19T12:37:10;100221.47;;;19.84;58.73
16690;BME280;8458;52.220;9.884;2023-09-19T12:39:42;100211.88;;;19.85;57.83
16690;BME280;8458;52.220;9.884;2023-09-19T12:42:10;100214.38;;;19.78;56.48
16690;BME280;8458;52.220;9.884;2023-09-19T12:44:40;100205.63;;;19.71;57.95
16690;BME280;8458;52.220;9.884;2023-09-19T12:47:09;100212.91;;;19.72;57.50
16690;BME280;8458;52.220;9.884;2023-09-19T12:50:09;100205.50;;;19.67;57.66
16690;BME280;8458;52.220;9.884;2023-09-19T12:52:42;100214.25;;;19.66;57.74
16690;BME280;8458;52.220;9.884;2023-09-19T12:55:20;100220.84;;;19.70;59.21
16690;BME280;8458;52.220;9.884;2023-09-19T12:57:56;100215.09;;;19.66;59.43
16690;BME280;8458;52.220;9.884;2023-09-19T13:00:31;100217.03;;;19.75;58.64
16690;BME280;8458;52.220;9.884;2023-09-19T13:03:11;100211.72;;;19.73;58.19
16690;BME280;8458;52.220;9.884;2023-09-19T13:05:50;100209.09;;;19.77;58.64
16690;BME280;8458;52.220;9.884;2023-09-19T13:08:20;100199.69;;;19.64;56.13
16690;BME280;8458;52.220;9.884;2023-09-19T13:11:09;100196.22;;;19.67;56.30
16690;BME280;8458;52.220;9.884;2023-09-19T13:13:38;100188.75;;;19.71;57.02
16690;BME280;8458;52.220;9.884;2023-09-19T13:16:06;100189.75;;;19.75;56.87